Main page
METAR-TAF:

METAR-TAF

Airports :

Nîmes–Alès–Camargue–Cévennes Airport

Nîmes, France

latitude: 43-45N, longitude: 004-25E, elevation: 94 m

Current weather observation

The report was made 33 minutes ago, at 09:30 UTC
Wind 14 kt from the North/Northeast, varying between North and Northeast
Temperature 22°C
Humidity 41%
Pressure 1019 hPa
Visibility 10 km or more
Scattered clouds at a height of 4400 ft
Scattered clouds at a height of 5000 ft
Broken clouds at a height of 6200 ft

METAR: LFTW 230930Z AUTO 02014KT 350V050 9999 SCT044 SCT050 BKN062 22/08 Q1019 TEMPO 36015G25KT

Time: 12:03 (10:03 UTC)

Forecast

The report was made 2 hours and 3 minutes ago, at 08:00 UTC
Forecast valid from 23 at 09 UTC to 24 at 09 UTC
Wind 15 kt from the North
Visibility 10 km or more
no clouds below 1500 m and no cumulonimbus
Temporary
from 23 at 09 UTC to 23 at 12 UTC
Wind 15 kt from the North with gusts up to 25 kt

TAF: LFTW 230800Z 2309/2409 36015KT CAVOK TEMPO 2309/2312 36015G25KT

Weather observations and forecasts of more than 4000 airports (METAR and TAF reports).

The available stations are represented by yellow and red dots on the map.

Hover mouse over dot to see the name of the station.

Then click to see weather observations and forecasts.

To change the map : click on the green buttons with a black cross to zoom in, on the green button with a dash to zoom out, or on the green arrows for adjacent maps.


METAR-TAF: